sensor_id;sensor_type;location;lat;lon;timestamp;temperature;humidity
33139;DHT22;19501;50.948;5.316;2023-09-12T00:02:10;21.50;99.90
33139;DHT22;19501;50.948;5.316;2023-09-12T00:04:36;21.40;99.90
33139;DHT22;19501;50.948;5.316;2023-09-12T00:07:02;21.40;99.90
33139;DHT22;19501;50.948;5.316;2023-09-12T00:09:27;21.30;99.90
33139;DHT22;19501;50.948;5.316;2023-09-12T00:11:53;21.30;99.90
33139;DHT22;19501;50.948;5.316;2023-09-12T00:14:21;21.30;99.90
33139;DHT22;19501;50.948;5.316;2023-09-12T00:16:46;21.20;99.90
33139;DHT22;19501;50.948;5.316;2023-09-12T00:19:12;21.30;99.90
33139;DHT22;19501;50.948;5.316;2023-09-12T00:21:38;21.30;99.90
33139;DHT22;19501;50.948;5.316;2023-09-12T00:24:04;21.10;99.90
33139;DHT22;19501;50.948;5.316;2023-09-12T00:26:29;21.10;99.90
33139;DHT22;19501;50.948;5.316;2023-09-12T00:28:56;21.10;99.90
33139;DHT22;19501;50.948;5.316;2023-09-12T00:31:22;21.10;99.90
33139;DHT22;19501;50.948;5.316;2023-09-12T00:33:47;21.00;99.90
33139;DHT22;19501;50.948;5.316;2023-09-12T00:36:13;21.10;99.90
33139;DHT22;19501;50.948;5.316;2023-09-12T00:38:38;21.20;99.90
33139;DHT22;19501;50.948;5.316;2023-09-12T00:41:04;21.30;99.90
33139;DHT22;19501;50.948;5.316;2023-09-12T00:43:30;21.20;99.90
33139;DHT22;19501;50.948;5.316;2023-09-12T00:45:55;21.20;99.90
33139;DHT22;19501;50.948;5.316;2023-09-12T00:48:21;21.30;99.90
33139;DHT22;19501;50.948;5.316;2023-09-12T00:50:49;21.40;99.90
33139;DHT22;19501;50.948;5.316;2023-09-12T00:53:16;21.40;99.90
33139;DHT22;19501;50.948;5.316;2023-09-12T00:55:46;21.50;99.90
33139;DHT22;19501;50.948;5.316;2023-09-12T00:58:14;21.30;99.90
33139;DHT22;19501;50.948;5.316;2023-09-12T01:00:43;20.80;99.90
33139;DHT22;19501;50.948;5.316;2023-09-12T01:03:09;20.80;99.90
33139;DHT22;19501;50.948;5.316;2023-09-12T01:05:35;21.10;99.90
33139;DHT22;19501;50.948;5.316;2023-09-12T01:08:01;21.20;99.90
33139;DHT22;19501;50.948;5.316;2023-09-12T01:10:27;20.90;99.90
33139;DHT22;19501;50.948;5.316;2023-09-12T01:12:52;20.70;99.90
33139;DHT22;19501;50.948;5.316;2023-09-12T01:15:18;20.90;99.90
33139;DHT22;19501;50.948;5.316;2023-09-12T01:17:45;21.00;99.90
33139;DHT22;19501;50.948;5.316;2023-09-12T01:20:16;21.10;99.90
33139;DHT22;19501;50.948;5.316;2023-09-12T01:26:28;21.10;99.90
33139;DHT22;19501;50.948;5.316;2023-09-12T01:28:23;21.10;99.90
33139;DHT22;19501;50.948;5.316;2023-09-12T01:30:51;21.10;99.90
33139;DHT22;19501;50.948;5.316;2023-09-12T01:33:20;21.20;99.90
33139;DHT22;19501;50.948;5.316;2023-09-12T01:35:46;21.10;99.90
33139;DHT22;19501;50.948;5.316;2023-09-12T01:38:13;21.10;99.90
33139;DHT22;19501;50.948;5.316;2023-09-12T01:40:46;21.00;99.90
33139;DHT22;19501;50.948;5.316;2023-09-12T01:43:19;20.80;99.90
33139;DHT22;19501;50.948;5.316;2023-09-12T01:45:46;20.80;99.90
33139;DHT22;19501;50.948;5.316;2023-09-12T01:48:14;20.80;99.90
33139;DHT22;19501;50.948;5.316;2023-09-12T01:50:42;20.80;99.90
33139;DHT22;19501;50.948;5.316;2023-09-12T01:53:08;20.80;99.90
33139;DHT22;19501;50.948;5.316;2023-09-12T01:55:34;20.90;99.90
33139;DHT22;19501;50.948;5.316;2023-09-12T01:58:01;20.90;99.90
33139;DHT22;19501;50.948;5.316;2023-09-12T02:00:27;21.10;99.90
33139;DHT22;19501;50.948;5.316;2023-09-12T02:02:53;21.10;99.90
33139;DHT22;19501;50.948;5.316;2023-09-12T02:05:21;20.90;99.90
33139;DHT22;19501;50.948;5.316;2023-09-12T02:07:48;21.10;99.90
33139;DHT22;19501;50.948;5.316;2023-09-12T02:10:14;21.10;99.90
33139;DHT22;19501;50.948;5.316;2023-09-12T02:12:41;21.10;99.90
33139;DHT22;19501;50.948;5.316;2023-09-12T02:15:07;21.10;99.90
33139;DHT22;19501;50.948;5.316;2023-09-12T02:17:33;20.80;99.90
33139;DHT22;19501;50.948;5.316;2023-09-12T02:19:58;20.80;99.90
33139;DHT22;19501;50.948;5.316;2023-09-12T02:22:26;20.80;99.90
33139;DHT22;19501;50.948;5.316;2023-09-12T02:24:52;20.70;99.90
33139;DHT22;19501;50.948;5.316;2023-09-12T02:27:17;20.70;99.90
33139;DHT22;19501;50.948;5.316;2023-09-12T02:29:43;20.90;99.90
33139;DHT22;19501;50.948;5.316;2023-09-12T02:32:09;20.90;99.90
33139;DHT22;19501;50.948;5.316;2023-09-12T02:34:35;20.90;99.90
33139;DHT22;19501;50.948;5.316;2023-09-12T02:37:01;20.90;99.90
33139;DHT22;19501;50.948;5.316;2023-09-12T02:39:26;21.00;99.90
33139;DHT22;19501;50.948;5.316;2023-09-12T02:41:54;21.10;99.90
33139;DHT22;19501;50.948;5.316;2023-09-12T02:44:20;21.10;99.90
33139;DHT22;19501;50.948;5.316;2023-09-12T02:46:46;20.90;99.90
33139;DHT22;19501;50.948;5.316;2023-09-12T02:49:11;20.80;99.90
33139;DHT22;19501;50.948;5.316;2023-09-12T02:51:40;21.00;99.90
33139;DHT22;19501;50.948;5.316;2023-09-12T02:54:06;21.10;99.90
33139;DHT22;19501;50.948;5.316;2023-09-12T02:56:32;21.10;99.90
33139;DHT22;19501;50.948;5.316;2023-09-12T02:59:00;20.90;99.90
33139;DHT22;19501;50.948;5.316;2023-09-12T03:01:26;20.80;99.90
33139;DHT22;19501;50.948;5.316;2023-09-12T03:03:54;20.90;99.90
33139;DHT22;19501;50.948;5.316;2023-09-12T03:06:20;20.80;99.90
33139;DHT22;19501;50.948;5.316;2023-09-12T03:08:47;20.90;99.90
33139;DHT22;19501;50.948;5.316;2023-09-12T03:11:13;20.90;99.90
33139;DHT22;19501;50.948;5.316;2023-09-12T03:13:40;20.90;99.90
33139;DHT22;19501;50.948;5.316;2023-09-12T03:16:10;20.90;99.90
33139;DHT22;19501;50.948;5.316;2023-09-12T03:18:36;20.80;99.90
33139;DHT22;19501;50.948;5.316;2023-09-12T03:21:01;20.80;99.90
33139;DHT22;19501;50.948;5.316;2023-09-12T03:23:27;20.90;99.90
33139;DHT22;19501;50.948;5.316;2023-09-12T03:25:53;20.60;99.90
33139;DHT22;19501;50.948;5.316;2023-09-12T03:28:19;20.50;99.90
33139;DHT22;19501;50.948;5.316;2023-09-12T03:30:47;20.60;99.90
33139;DHT22;19501;50.948;5.316;2023-09-12T03:33:15;20.80;99.90
33139;DHT22;19501;50.948;5.316;2023-09-12T03:35:43;20.70;99.90
33139;DHT22;19501;50.948;5.316;2023-09-12T03:38:09;20.60;99.90
33139;DHT22;19501;50.948;5.316;2023-09-12T03:40:36;20.40;99.90
33139;DHT22;19501;50.948;5.316;2023-09-12T03:43:01;20.50;99.90
33139;DHT22;19501;50.948;5.316;2023-09-12T03:45:27;20.40;99.90
33139;DHT22;19501;50.948;5.316;2023-09-12T03:47:53;20.60;99.90
33139;DHT22;19501;50.948;5.316;2023-09-12T03:50:18;20.60;99.90
33139;DHT22;19501;50.948;5.316;2023-09-12T03:52:44;20.60;99.90
33139;DHT22;19501;50.948;5.316;2023-09-12T03:55:10;20.60;99.90
33139;DHT22;19501;50.948;5.316;2023-09-12T03:57:35;20.60;99.90
33139;DHT22;19501;50.948;5.316;2023-09-12T04:00:01;20.40;99.90
33139;DHT22;19501;50.948;5.316;2023-09-12T04:02:29;20.30;99.90
33139;DHT22;19501;50.948;5.316;2023-09-12T04:04:55;20.20;99.90
33139;DHT22;19501;50.948;5.316;2023-09-12T04:07:27;20.20;99.90
33139;DHT22;19501;50.948;5.316;2023-09-12T04:09:53;20.20;99.90
33139;DHT22;19501;50.948;5.316;2023-09-12T04:12:19;20.40;99.90
33139;DHT22;19501;50.948;5.316;2023-09-12T04:14:44;20.50;99.90
33139;DHT22;19501;50.948;5.316;2023-09-12T04:17:10;20.30;99.90
33139;DHT22;19501;50.948;5.316;2023-09-12T04:19:36;20.20;99.90
33139;DHT22;19501;50.948;5.316;2023-09-12T04:22:01;20.20;99.90
33139;DHT22;19501;50.948;5.316;2023-09-12T04:24:27;20.20;99.90
33139;DHT22;19501;50.948;5.316;2023-09-12T04:26:53;20.30;99.90
33139;DHT22;19501;50.948;5.316;2023-09-12T04:29:19;20.20;99.90
33139;DHT22;19501;50.948;5.316;2023-09-12T04:31:45;20.20;99.90
33139;DHT22;19501;50.948;5.316;2023-09-12T04:34:10;20.30;99.90
33139;DHT22;19501;50.948;5.316;2023-09-12T04:36:36;20.40;99.90
33139;DHT22;19501;50.948;5.316;2023-09-12T04:39:02;20.50;99.90
33139;DHT22;19501;50.948;5.316;2023-09-12T04:41:27;20.60;99.90
33139;DHT22;19501;50.948;5.316;2023-09-12T04:43:53;20.70;99.90
33139;DHT22;19501;50.948;5.316;2023-09-12T04:46:18;20.80;99.90
33139;DHT22;19501;50.948;5.316;2023-09-12T04:48:44;20.80;99.90
33139;DHT22;19501;50.948;5.316;2023-09-12T04:51:10;20.80;99.90
33139;DHT22;19501;50.948;5.316;2023-09-12T04:53:35;20.70;99.90
33139;DHT22;19501;50.948;5.316;2023-09-12T04:56:05;20.70;99.90
33139;DHT22;19501;50.948;5.316;2023-09-12T04:58:32;20.70;99.90
33139;DHT22;19501;50.948;5.316;2023-09-12T05:00:58;20.70;99.90
33139;DHT22;19501;50.948;5.316;2023-09-12T05:03:23;20.80;99.90
33139;DHT22;19501;50.948;5.316;2023-09-12T05:05:49;20.70;99.90
33139;DHT22;19501;50.948;5.316;2023-09-12T05:08:16;20.70;99.90
33139;DHT22;19501;50.948;5.316;2023-09-12T05:10:44;20.70;99.90
33139;DHT22;19501;50.948;5.316;2023-09-12T05:13:09;20.80;99.90
33139;DHT22;19501;50.948;5.316;2023-09-12T05:15:35;20.80;99.90
33139;DHT22;19501;50.948;5.316;2023-09-12T05:18:02;20.70;99.90
33139;DHT22;19501;50.948;5.316;2023-09-12T05:20:28;20.50;99.90
33139;DHT22;19501;50.948;5.316;2023-09-12T05:22:53;20.50;99.90
33139;DHT22;19501;50.948;5.316;2023-09-12T05:25:19;20.60;99.90
33139;DHT22;19501;50.948;5.316;2023-09-12T05:27:45;20.50;99.90
33139;DHT22;19501;50.948;5.316;2023-09-12T05:30:15;20.30;99.90
33139;DHT22;19501;50.948;5.316;2023-09-12T05:32:41;20.20;99.90
33139;DHT22;19501;50.948;5.316;2023-09-12T05:35:07;20.20;99.90
33139;DHT22;19501;50.948;5.316;2023-09-12T05:37:33;20.40;99.90
33139;DHT22;19501;50.948;5.316;2023-09-12T05:39:58;20.30;99.90
33139;DHT22;19501;50.948;5.316;2023-09-12T05:42:24;20.20;99.90
33139;DHT22;19501;50.948;5.316;2023-09-12T05:44:50;20.10;99.90
33139;DHT22;19501;50.948;5.316;2023-09-12T05:47:19;20.00;99.90
33139;DHT22;19501;50.948;5.316;2023-09-12T05:49:45;20.10;99.90
33139;DHT22;19501;50.948;5.316;2023-09-12T05:52:10;20.10;99.90
33139;DHT22;19501;50.948;5.316;2023-09-12T05:54:36;19.90;99.90
33139;DHT22;19501;50.948;5.316;2023-09-12T05:57:03;19.80;99.90
33139;DHT22;19501;50.948;5.316;2023-09-12T05:59:29;20.00;99.90
33139;DHT22;19501;50.948;5.316;2023-09-12T06:01:54;20.10;99.90
33139;DHT22;19501;50.948;5.316;2023-09-12T06:04:21;20.20;99.90
33139;DHT22;19501;50.948;5.316;2023-09-12T06:06:47;20.30;99.90
33139;DHT22;19501;50.948;5.316;2023-09-12T06:09:12;20.40;99.90
33139;DHT22;19501;50.948;5.316;2023-09-12T06:11:40;20.50;99.90
33139;DHT22;19501;50.948;5.316;2023-09-12T06:14:06;20.60;99.90
33139;DHT22;19501;50.948;5.316;2023-09-12T06:16:32;20.50;99.90
33139;DHT22;19501;50.948;5.316;2023-09-12T06:18:57;20.60;99.90
33139;DHT22;19501;50.948;5.316;2023-09-12T06:21:23;20.30;99.90
33139;DHT22;19501;50.948;5.316;2023-09-12T06:24:11;20.10;99.90
33139;DHT22;19501;50.948;5.316;2023-09-12T06:26:37;20.10;99.90
33139;DHT22;19501;50.948;5.316;2023-09-12T06:29:03;19.90;99.90
33139;DHT22;19501;50.948;5.316;2023-09-12T06:31:29;20.10;99.90
33139;DHT22;19501;50.948;5.316;2023-09-12T06:33:55;20.10;99.90
33139;DHT22;19501;50.948;5.316;2023-09-12T06:36:21;19.80;99.90
33139;DHT22;19501;50.948;5.316;2023-09-12T06:38:50;19.70;99.90
33139;DHT22;19501;50.948;5.316;2023-09-12T06:41:19;19.60;99.90
33139;DHT22;19501;50.948;5.316;2023-09-12T06:43:45;19.70;99.90
33139;DHT22;19501;50.948;5.316;2023-09-12T06:46:10;19.80;99.90
33139;DHT22;19501;50.948;5.316;2023-09-12T06:48:36;19.70;99.90
33139;DHT22;19501;50.948;5.316;2023-09-12T06:51:05;19.80;99.90
33139;DHT22;19501;50.948;5.316;2023-09-12T06:53:31;19.90;99.90
33139;DHT22;19501;50.948;5.316;2023-09-12T06:55:56;19.90;99.90
33139;DHT22;19501;50.948;5.316;2023-09-12T06:58:23;20.00;99.90
33139;DHT22;19501;50.948;5.316;2023-09-12T07:00:48;20.00;99.90
33139;DHT22;19501;50.948;5.316;2023-09-12T07:03:14;20.10;99.90
33139;DHT22;19501;50.948;5.316;2023-09-12T07:05:41;20.30;99.90
33139;DHT22;19501;50.948;5.316;2023-09-12T07:08:07;20.40;99.90
33139;DHT22;19501;50.948;5.316;2023-09-12T07:10:34;20.50;99.90
33139;DHT22;19501;50.948;5.316;2023-09-12T07:12:59;20.50;99.90
33139;DHT22;19501;50.948;5.316;2023-09-12T07:15:27;20.60;99.90
33139;DHT22;19501;50.948;5.316;2023-09-12T07:17:53;20.70;99.90
33139;DHT22;19501;50.948;5.316;2023-09-12T07:20:19;20.80;99.90
33139;DHT22;19501;50.948;5.316;2023-09-12T07:22:46;21.00;99.90
33139;DHT22;19501;50.948;5.316;2023-09-12T07:25:13;21.10;99.90
33139;DHT22;19501;50.948;5.316;2023-09-12T07:27:43;21.00;99.90
33139;DHT22;19501;50.948;5.316;2023-09-12T07:30:10;20.90;99.90
33139;DHT22;19501;50.948;5.316;2023-09-12T07:32:35;20.70;99.90
33139;DHT22;19501;50.948;5.316;2023-09-12T07:35:01;20.70;99.90
33139;DHT22;19501;50.948;5.316;2023-09-12T07:37:29;20.80;99.90
33139;DHT22;19501;50.948;5.316;2023-09-12T07:39:55;20.70;99.90
33139;DHT22;19501;50.948;5.316;2023-09-12T07:42:22;20.70;99.90
33139;DHT22;19501;50.948;5.316;2023-09-12T07:44:48;21.00;99.90
33139;DHT22;19501;50.948;5.316;2023-09-12T07:47:14;21.30;99.90
33139;DHT22;19501;50.948;5.316;2023-09-12T07:49:40;21.40;99.90
33139;DHT22;19501;50.948;5.316;2023-09-12T07:52:06;21.40;99.90
33139;DHT22;19501;50.948;5.316;2023-09-12T07:54:31;21.60;99.90
33139;DHT22;19501;50.948;5.316;2023-09-12T07:56:59;21.70;99.90
33139;DHT22;19501;50.948;5.316;2023-09-12T07:59:25;21.80;99.90
33139;DHT22;19501;50.948;5.316;2023-09-12T08:01:53;21.70;99.90
33139;DHT22;19501;50.948;5.316;2023-09-12T08:04:19;21.80;99.90
33139;DHT22;19501;50.948;5.316;2023-09-12T08:06:44;21.50;99.90
33139;DHT22;19501;50.948;5.316;2023-09-12T08:09:10;21.60;99.90
33139;DHT22;19501;50.948;5.316;2023-09-12T08:11:36;21.90;99.90
33139;DHT22;19501;50.948;5.316;2023-09-12T08:14:01;22.00;99.90
33139;DHT22;19501;50.948;5.316;2023-09-12T08:16:27;22.20;99.90
33139;DHT22;19501;50.948;5.316;2023-09-12T08:18:53;22.20;99.90
33139;DHT22;19501;50.948;5.316;2023-09-12T08:21:18;22.30;99.90
33139;DHT22;19501;50.948;5.316;2023-09-12T08:23:44;22.50;99.90
33139;DHT22;19501;50.948;5.316;2023-09-12T08:26:10;22.40;99.90
33139;DHT22;19501;50.948;5.316;2023-09-12T08:28:36;22.50;99.90
33139;DHT22;19501;50.948;5.316;2023-09-12T08:31:02;22.50;99.90
33139;DHT22;19501;50.948;5.316;2023-09-12T08:33:30;22.20;99.90
33139;DHT22;19501;50.948;5.316;2023-09-12T08:35:55;22.10;99.90
33139;DHT22;19501;50.948;5.316;2023-09-12T08:38:22;22.20;99.90
33139;DHT22;19501;50.948;5.316;2023-09-12T08:40:51;22.40;99.90
33139;DHT22;19501;50.948;5.316;2023-09-12T08:43:18;22.70;99.90
33139;DHT22;19501;50.948;5.316;2023-09-12T08:45:47;23.00;99.90
33139;DHT22;19501;50.948;5.316;2023-09-12T08:48:13;23.60;99.90
33139;DHT22;19501;50.948;5.316;2023-09-12T08:50:41;23.80;99.90
33139;DHT22;19501;50.948;5.316;2023-09-12T08:53:07;24.00;99.90
33139;DHT22;19501;50.948;5.316;2023-09-12T08:55:33;24.00;99.90
33139;DHT22;19501;50.948;5.316;2023-09-12T08:58:02;24.10;99.90
33139;DHT22;19501;50.948;5.316;2023-09-12T09:00:28;24.30;99.90
33139;DHT22;19501;50.948;5.316;2023-09-12T09:02:54;24.20;99.90
33139;DHT22;19501;50.948;5.316;2023-09-12T09:05:21;24.20;99.90
33139;DHT22;19501;50.948;5.316;2023-09-12T09:07:48;23.70;99.90
33139;DHT22;19501;50.948;5.316;2023-09-12T09:10:16;23.70;99.90
33139;DHT22;19501;50.948;5.316;2023-09-12T09:12:44;23.80;99.90
33139;DHT22;19501;50.948;5.316;2023-09-12T09:15:24;23.90;99.90
33139;DHT22;19501;50.948;5.316;2023-09-12T09:17:52;24.00;99.90
33139;DHT22;19501;50.948;5.316;2023-09-12T09:20:27;24.20;99.90
33139;DHT22;19501;50.948;5.316;2023-09-12T09:23:19;24.30;99.90
33139;DHT22;19501;50.948;5.316;2023-09-12T09:25:52;24.30;99.90
33139;DHT22;19501;50.948;5.316;2023-09-12T09:28:20;24.50;99.90
33139;DHT22;19501;50.948;5.316;2023-09-12T09:30:48;24.60;99.90
33139;DHT22;19501;50.948;5.316;2023-09-12T09:33:14;24.60;99.90
33139;DHT22;19501;50.948;5.316;2023-09-12T09:35:46;24.60;99.90
33139;DHT22;19501;50.948;5.316;2023-09-12T09:38:11;24.50;99.90
33139;DHT22;19501;50.948;5.316;2023-09-12T09:40:42;24.70;99.90
33139;DHT22;19501;50.948;5.316;2023-09-12T09:43:09;24.70;99.90
33139;DHT22;19501;50.948;5.316;2023-09-12T09:45:45;25.00;99.90
33139;DHT22;19501;50.948;5.316;2023-09-12T09:48:18;25.30;99.90
33139;DHT22;19501;50.948;5.316;2023-09-12T09:50:44;25.10;99.90
33139;DHT22;19501;50.948;5.316;2023-09-12T09:53:10;25.10;99.90
33139;DHT22;19501;50.948;5.316;2023-09-12T09:55:36;25.50;99.90
33139;DHT22;19501;50.948;5.316;2023-09-12T09:58:08;25.70;99.90
33139;DHT22;19501;50.948;5.316;2023-09-12T10:00:36;26.10;99.90
33139;DHT22;19501;50.948;5.316;2023-09-12T10:03:04;26.40;99.90
33139;DHT22;19501;50.948;5.316;2023-09-12T10:05:33;26.50;99.90
33139;DHT22;19501;50.948;5.316;2023-09-12T10:08:02;26.50;99.90
33139;DHT22;19501;50.948;5.316;2023-09-12T10:10:31;26.60;99.90
33139;DHT22;19501;50.948;5.316;2023-09-12T10:13:01;26.60;99.90
33139;DHT22;19501;50.948;5.316;2023-09-12T10:15:30;26.30;99.90
33139;DHT22;19501;50.948;5.316;2023-09-12T10:18:00;26.30;99.90
33139;DHT22;19501;50.948;5.316;2023-09-12T10:20:50;26.60;99.90
33139;DHT22;19501;50.948;5.316;2023-09-12T10:23:35;26.60;99.90
33139;DHT22;19501;50.948;5.316;2023-09-12T10:26:03;26.40;99.90
33139;DHT22;19501;50.948;5.316;2023-09-12T10:28:30;26.40;99.90
33139;DHT22;19501;50.948;5.316;2023-09-12T10:30:57;26.80;99.90
33139;DHT22;19501;50.948;5.316;2023-09-12T10:33:24;27.10;99.90
33139;DHT22;19501;50.948;5.316;2023-09-12T10:35:52;27.00;99.90
33139;DHT22;19501;50.948;5.316;2023-09-12T10:38:20;27.40;99.90
33139;DHT22;19501;50.948;5.316;2023-09-12T10:40:47;27.90;99.90
33139;DHT22;19501;50.948;5.316;2023-09-12T10:43:14;27.70;99.90
33139;DHT22;19501;50.948;5.316;2023-09-12T10:45:41;28.10;99.90
33139;DHT22;19501;50.948;5.316;2023-09-12T10:48:08;28.40;99.90
33139;DHT22;19501;50.948;5.316;2023-09-12T10:50:35;27.80;99.90
33139;DHT22;19501;50.948;5.316;2023-09-12T10:53:15;28.50;99.90
33139;DHT22;19501;50.948;5.316;2023-09-12T10:55:58;29.60;99.90
33139;DHT22;19501;50.948;5.316;2023-09-12T10:58:24;28.60;99.90
33139;DHT22;19501;50.948;5.316;2023-09-12T11:01:25;28.90;99.90
33139;DHT22;19501;50.948;5.316;2023-09-12T11:03:51;28.60;99.90
33139;DHT22;19501;50.948;5.316;2023-09-12T11:06:21;28.60;99.90
33139;DHT22;19501;50.948;5.316;2023-09-12T11:11:40;29.40;99.90
33139;DHT22;19501;50.948;5.316;2023-09-12T11:14:07;29.90;99.90
33139;DHT22;19501;50.948;5.316;2023-09-12T11:16:34;29.80;99.90
33139;DHT22;19501;50.948;5.316;2023-09-12T11:19:22;30.00;99.90
33139;DHT22;19501;50.948;5.316;2023-09-12T11:21:53;29.50;99.90
33139;DHT22;19501;50.948;5.316;2023-09-12T11:24:23;29.80;99.90
33139;DHT22;19501;50.948;5.316;2023-09-12T11:26:59;29.30;99.90
33139;DHT22;19501;50.948;5.316;2023-09-12T11:29:36;28.30;99.90
33139;DHT22;19501;50.948;5.316;2023-09-12T11:32:03;28.40;99.90
33139;DHT22;19501;50.948;5.316;2023-09-12T11:34:36;28.80;99.90
33139;DHT22;19501;50.948;5.316;2023-09-12T11:37:02;29.20;99.90
33139;DHT22;19501;50.948;5.316;2023-09-12T11:39:31;28.60;99.90
33139;DHT22;19501;50.948;5.316;2023-09-12T11:41:58;28.70;99.90
33139;DHT22;19501;50.948;5.316;2023-09-12T11:44:24;28.20;99.90
33139;DHT22;19501;50.948;5.316;2023-09-12T11:46:52;28.10;99.90
33139;DHT22;19501;50.948;5.316;2023-09-12T11:49:19;27.70;99.90
33139;DHT22;19501;50.948;5.316;2023-09-12T11:51:52;27.90;99.90
33139;DHT22;19501;50.948;5.316;2023-09-12T11:54:25;27.80;99.90
33139;DHT22;19501;50.948;5.316;2023-09-12T11:56:53;27.30;99.90
33139;DHT22;19501;50.948;5.316;2023-09-12T11:59:23;28.20;99.90
33139;DHT22;19501;50.948;5.316;2023-09-12T12:01:49;28.60;99.90
33139;DHT22;19501;50.948;5.316;2023-09-12T12:04:15;29.60;99.90
33139;DHT22;19501;50.948;5.316;2023-09-12T12:06:41;30.60;99.90
33139;DHT22;19501;50.948;5.316;2023-09-12T12:09:09;31.50;99.90
33139;DHT22;19501;50.948;5.316;2023-09-12T12:11:34;32.40;99.90
33139;DHT22;19501;50.948;5.316;2023-09-12T12:14:30;32.00;99.90
33139;DHT22;19501;50.948;5.316;2023-09-12T12:17:08;31.20;99.90
33139;DHT22;19501;50.948;5.316;2023-09-12T12:19:34;30.50;99.90
33139;DHT22;19501;50.948;5.316;2023-09-12T12:22:05;30.80;99.90
33139;DHT22;19501;50.948;5.316;2023-09-12T12:24:37;31.70;99.90
33139;DHT22;19501;50.948;5.316;2023-09-12T12:27:04;32.20;99.90
33139;DHT22;19501;50.948;5.316;2023-09-12T12:29:30;33.00;99.90
33139;DHT22;19501;50.948;5.316;2023-09-12T12:32:03;32.40;99.90
33139;DHT22;19501;50.948;5.316;2023-09-12T12:34:30;31.60;99.90
33139;DHT22;19501;50.948;5.316;2023-09-12T12:36:57;31.00;99.90
33139;DHT22;19501;50.948;5.316;2023-09-12T12:39:23;30.10;99.90
33139;DHT22;19501;50.948;5.316;2023-09-12T12:41:52;29.30;99.90
33139;DHT22;19501;50.948;5.316;2023-09-12T12:44:19;28.20;99.90
33139;DHT22;19501;50.948;5.316;2023-09-12T12:47:04;27.60;99.90
33139;DHT22;19501;50.948;5.316;2023-09-12T12:49:36;27.70;99.90
33139;DHT22;19501;50.948;5.316;2023-09-12T12:52:04;28.10;99.90
33139;DHT22;19501;50.948;5.316;2023-09-12T12:54:32;27.90;99.90
33139;DHT22;19501;50.948;5.316;2023-09-12T12:56:59;28.60;99.90
33139;DHT22;19501;50.948;5.316;2023-09-12T12:59:25;28.80;99.90
33139;DHT22;19501;50.948;5.316;2023-09-12T13:01:51;28.50;99.90
33139;DHT22;19501;50.948;5.316;2023-09-12T13:04:16;29.30;99.90
33139;DHT22;19501;50.948;5.316;2023-09-12T13:06:42;29.30;99.90
33139;DHT22;19501;50.948;5.316;2023-09-12T13:09:10;29.50;99.90
33139;DHT22;19501;50.948;5.316;2023-09-12T13:11:38;29.80;99.90
33139;DHT22;19501;50.948;5.316;2023-09-12T13:14:04;29.40;99.90
33139;DHT22;19501;50.948;5.316;2023-09-12T13:16:36;29.40;99.90
33139;DHT22;19501;50.948;5.316;2023-09-12T13:19:03;30.20;99.90
33139;DHT22;19501;50.948;5.316;2023-09-12T13:21:31;30.30;99.90
33139;DHT22;19501;50.948;5.316;2023-09-12T13:23:58;30.50;99.90
33139;DHT22;19501;50.948;5.316;2023-09-12T13:26:26;30.50;99.90
33139;DHT22;19501;50.948;5.316;2023-09-12T13:28:51;29.70;99.90
33139;DHT22;19501;50.948;5.316;2023-09-12T13:31:17;29.10;99.90
33139;DHT22;19501;50.948;5.316;2023-09-12T13:33:43;29.00;99.90
33139;DHT22;19501;50.948;5.316;2023-09-12T13:36:08;29.30;99.90
33139;DHT22;19501;50.948;5.316;2023-09-12T13:38:34;30.20;99.90
33139;DHT22;19501;50.948;5.316;2023-09-12T13:41:00;30.40;99.90
33139;DHT22;19501;50.948;5.316;2023-09-12T13:43:26;29.40;99.90
33139;DHT22;19501;50.948;5.316;2023-09-12T13:45:51;29.30;99.90
33139;DHT22;19501;50.948;5.316;2023-09-12T13:48:19;29.90;99.90
33139;DHT22;19501;50.948;5.316;2023-09-12T13:50:45;29.90;99.90
33139;DHT22;19501;50.948;5.316;2023-09-12T13:53:11;29.90;99.90
33139;DHT22;19501;50.948;5.316;2023-09-12T13:55:37;30.20;99.90
33139;DHT22;19501;50.948;5.316;2023-09-12T13:58:03;29.90;99.90
33139;DHT22;19501;50.948;5.316;2023-09-12T14:00:30;29.70;99.90
33139;DHT22;19501;50.948;5.316;2023-09-12T14:02:56;29.40;99.90
33139;DHT22;19501;50.948;5.316;2023-09-12T14:05:21;29.40;99.90
33139;DHT22;19501;50.948;5.316;2023-09-12T14:07:47;29.10;99.90
33139;DHT22;19501;50.948;5.316;2023-09-12T14:10:13;28.60;99.90
33139;DHT22;19501;50.948;5.316;2023-09-12T14:12:39;29.10;99.90
33139;DHT22;19501;50.948;5.316;2023-09-12T14:15:05;29.00;99.90
33139;DHT22;19501;50.948;5.316;2023-09-12T14:17:32;28.80;99.90
33139;DHT22;19501;50.948;5.316;2023-09-12T14:19:57;29.00;99.90
33139;DHT22;19501;50.948;5.316;2023-09-12T14:22:23;28.60;99.90
33139;DHT22;19501;50.948;5.316;2023-09-12T14:24:49;28.20;99.90
33139;DHT22;19501;50.948;5.316;2023-09-12T14:27:14;28.10;99.90
33139;DHT22;19501;50.948;5.316;2023-09-12T14:29:40;28.00;99.90
33139;DHT22;19501;50.948;5.316;2023-09-12T14:32:10;27.90;99.90
33139;DHT22;19501;50.948;5.316;2023-09-12T14:34:36;28.00;99.90
33139;DHT22;19501;50.948;5.316;2023-09-12T14:37:02;27.90;99.90
33139;DHT22;19501;50.948;5.316;2023-09-12T14:39:27;27.70;99.90
33139;DHT22;19501;50.948;5.316;2023-09-12T14:41:53;27.60;99.90
33139;DHT22;19501;50.948;5.316;2023-09-12T14:44:20;27.60;99.90
33139;DHT22;19501;50.948;5.316;2023-09-12T14:46:46;28.00;99.90
33139;DHT22;19501;50.948;5.316;2023-09-12T14:49:11;27.80;99.90
33139;DHT22;19501;50.948;5.316;2023-09-12T14:51:37;27.50;99.90
33139;DHT22;19501;50.948;5.316;2023-09-12T14:54:03;27.10;99.90
33139;DHT22;19501;50.948;5.316;2023-09-12T14:56:30;27.10;99.90
33139;DHT22;19501;50.948;5.316;2023-09-12T14:58:56;27.30;99.90
33139;DHT22;19501;50.948;5.316;2023-09-12T15:01:22;27.30;99.90
33139;DHT22;19501;50.948;5.316;2023-09-12T15:03:49;27.10;99.90
33139;DHT22;19501;50.948;5.316;2023-09-12T15:06:14;27.60;99.90
33139;DHT22;19501;50.948;5.316;2023-09-12T15:08:40;27.70;99.90
33139;DHT22;19501;50.948;5.316;2023-09-12T15:11:06;27.70;99.90
33139;DHT22;19501;50.948;5.316;2023-09-12T15:13:31;27.70;99.90
33139;DHT22;19501;50.948;5.316;2023-09-12T15:15:57;27.20;99.90
33139;DHT22;19501;50.948;5.316;2023-09-12T15:18:23;27.20;99.90
33139;DHT22;19501;50.948;5.316;2023-09-12T15:20:48;27.00;99.90
33139;DHT22;19501;50.948;5.316;2023-09-12T15:23:16;27.10;99.90
33139;DHT22;19501;50.948;5.316;2023-09-12T15:25:42;27.10;99.90
33139;DHT22;19501;50.948;5.316;2023-09-12T15:28:07;27.00;99.90
33139;DHT22;19501;50.948;5.316;2023-09-12T15:30:33;27.10;99.90
33139;DHT22;19501;50.948;5.316;2023-09-12T15:33:01;27.10;99.90
33139;DHT22;19501;50.948;5.316;2023-09-12T15:35:26;26.80;99.90
33139;DHT22;19501;50.948;5.316;2023-09-12T15:37:52;26.90;99.90